sensor_id;sensor_type;location;lat;lon;timestamp;pressure;altitude;pressure_sealevel;temperature;humidity
15050;BME280;7622;42.724;23.250;2022-11-14T00:01:33;95773.91;;;5.36;100.00
15050;BME280;7622;42.724;23.250;2022-11-14T00:04:00;95772.59;;;5.13;100.00
15050;BME280;7622;42.724;23.250;2022-11-14T00:06:27;95772.25;;;5.19;100.00
15050;BME280;7622;42.724;23.250;2022-11-14T00:08:54;95769.50;;;5.22;100.00
15050;BME280;7622;42.724;23.250;2022-11-14T00:11:20;95767.53;;;5.11;100.00
15050;BME280;7622;42.724;23.250;2022-11-14T00:13:47;95763.94;;;4.98;100.00
15050;BME280;7622;42.724;23.250;2022-11-14T00:16:15;95748.81;;;4.92;100.00
15050;BME280;7622;42.724;23.250;2022-11-14T00:18:42;95767.63;;;5.10;100.00
15050;BME280;7622;42.724;23.250;2022-11-14T00:21:09;95757.13;;;5.13;100.00
15050;BME280;7622;42.724;23.250;2022-11-14T00:23:35;95759.63;;;5.14;100.00
15050;BME280;7622;42.724;23.250;2022-11-14T00:26:02;95749.25;;;5.00;100.00
15050;BME280;7622;42.724;23.250;2022-11-14T00:28:29;95767.28;;;5.00;100.00
15050;BME280;7622;42.724;23.250;2022-11-14T00:30:56;95769.91;;;4.99;100.00
15050;BME280;7622;42.724;23.250;2022-11-14T00:33:24;95766.59;;;4.81;100.00
15050;BME280;7622;42.724;23.250;2022-11-14T00:35:51;95765.91;;;4.78;100.00
15050;BME280;7622;42.724;23.250;2022-11-14T00:38:18;95763.84;;;4.84;100.00
15050;BME280;7622;42.724;23.250;2022-11-14T00:40:45;95775.56;;;4.74;100.00
15050;BME280;7622;42.724;23.250;2022-11-14T00:43:12;95771.28;;;4.90;100.00
15050;BME280;7622;42.724;23.250;2022-11-14T00:45:41;95769.81;;;4.85;100.00
15050;BME280;7622;42.724;23.250;2022-11-14T00:48:08;95770.06;;;4.80;100.00
15050;BME280;7622;42.724;23.250;2022-11-14T00:50:36;95763.72;;;5.03;100.00
15050;BME280;7622;42.724;23.250;2022-11-14T00:53:03;95772.09;;;4.91;100.00
15050;BME280;7622;42.724;23.250;2022-11-14T00:55:30;95760.53;;;4.82;100.00
15050;BME280;7622;42.724;23.250;2022-11-14T00:57:57;95764.28;;;4.92;100.00
15050;BME280;7622;42.724;23.250;2022-11-14T01:00:23;95758.72;;;5.00;100.00
15050;BME280;7622;42.724;23.250;2022-11-14T01:02:50;95771.75;;;4.81;100.00
15050;BME280;7622;42.724;23.250;2022-11-14T01:05:21;95741.09;;;4.61;100.00
15050;BME280;7622;42.724;23.250;2022-11-14T01:07:49;95772.69;;;4.96;100.00
15050;BME280;7622;42.724;23.250;2022-11-14T01:10:16;95757.47;;;4.75;100.00
15050;BME280;7622;42.724;23.250;2022-11-14T01:12:43;95775.72;;;4.87;100.00
15050;BME280;7622;42.724;23.250;2022-11-14T01:15:10;95744.72;;;4.57;100.00
15050;BME280;7622;42.724;23.250;2022-11-14T01:17:37;95758.84;;;4.65;100.00
15050;BME280;7622;42.724;23.250;2022-11-14T01:20:04;95770.44;;;4.57;100.00
15050;BME280;7622;42.724;23.250;2022-11-14T01:22:31;95762.72;;;4.41;100.00
15050;BME280;7622;42.724;23.250;2022-11-14T01:24:59;95763.38;;;4.45;100.00
15050;BME280;7622;42.724;23.250;2022-11-14T01:27:29;95765.34;;;4.40;100.00
15050;BME280;7622;42.724;23.250;2022-11-14T01:29:56;95746.47;;;4.23;100.00
15050;BME280;7622;42.724;23.250;2022-11-14T01:32:22;95754.38;;;4.36;100.00
15050;BME280;7622;42.724;23.250;2022-11-14T01:34:49;95753.88;;;4.29;100.00
15050;BME280;7622;42.724;23.250;2022-11-14T01:37:16;95752.97;;;4.30;100.00
15050;BME280;7622;42.724;23.250;2022-11-14T01:39:43;95745.13;;;4.16;100.00
15050;BME280;7622;42.724;23.250;2022-11-14T01:42:11;95753.47;;;4.04;100.00
15050;BME280;7622;42.724;23.250;2022-11-14T01:44:44;95750.81;;;4.06;100.00
15050;BME280;7622;42.724;23.250;2022-11-14T01:47:12;95747.66;;;4.01;100.00
15050;BME280;7622;42.724;23.250;2022-11-14T01:49:44;95718.44;;;3.51;100.00
15050;BME280;7622;42.724;23.250;2022-11-14T01:52:14;95735.78;;;3.64;100.00
15050;BME280;7622;42.724;23.250;2022-11-14T01:54:45;95732.47;;;3.62;100.00
15050;BME280;7622;42.724;23.250;2022-11-14T01:57:17;95725.81;;;3.40;100.00
15050;BME280;7622;42.724;23.250;2022-11-14T01:59:48;95727.63;;;3.38;100.00
15050;BME280;7622;42.724;23.250;2022-11-14T02:02:18;95724.13;;;3.22;100.00
15050;BME280;7622;42.724;23.250;2022-11-14T02:04:49;95721.84;;;3.16;100.00
15050;BME280;7622;42.724;23.250;2022-11-14T02:07:17;95718.59;;;3.12;100.00
15050;BME280;7622;42.724;23.250;2022-11-14T02:09:46;95710.34;;;3.06;100.00
15050;BME280;7622;42.724;23.250;2022-11-14T02:12:16;95714.63;;;3.24;100.00
15050;BME280;7622;42.724;23.250;2022-11-14T02:14:45;95714.75;;;3.21;100.00
15050;BME280;7622;42.724;23.250;2022-11-14T02:17:14;95705.84;;;3.28;100.00
15050;BME280;7622;42.724;23.250;2022-11-14T02:19:42;95701.69;;;3.26;100.00
15050;BME280;7622;42.724;23.250;2022-11-14T02:22:11;95712.06;;;3.41;100.00
15050;BME280;7622;42.724;23.250;2022-11-14T02:24:38;95703.00;;;3.34;100.00
15050;BME280;7622;42.724;23.250;2022-11-14T02:27:05;95702.78;;;3.39;100.00
15050;BME280;7622;42.724;23.250;2022-11-14T02:29:33;95700.72;;;3.28;100.00
15050;BME280;7622;42.724;23.250;2022-11-14T02:32:00;95703.88;;;3.16;100.00
15050;BME280;7622;42.724;23.250;2022-11-14T02:34:27;95702.88;;;3.18;100.00
15050;BME280;7622;42.724;23.250;2022-11-14T02:36:54;95708.06;;;3.00;100.00
15050;BME280;7622;42.724;23.250;2022-11-14T02:39:22;95701.50;;;2.94;100.00
15050;BME280;7622;42.724;23.250;2022-11-14T02:41:50;95699.72;;;2.77;100.00
15050;BME280;7622;42.724;23.250;2022-11-14T02:44:17;95701.97;;;2.84;100.00
15050;BME280;7622;42.724;23.250;2022-11-14T02:46:44;95706.09;;;2.88;100.00
15050;BME280;7622;42.724;23.250;2022-11-14T02:49:11;95699.41;;;2.84;100.00
15050;BME280;7622;42.724;23.250;2022-11-14T02:51:38;95710.25;;;2.71;100.00
15050;BME280;7622;42.724;23.250;2022-11-14T02:54:05;95702.63;;;2.70;100.00
15050;BME280;7622;42.724;23.250;2022-11-14T02:56:33;95697.00;;;2.81;100.00
15050;BME280;7622;42.724;23.250;2022-11-14T02:59:00;95696.78;;;2.85;100.00
15050;BME280;7622;42.724;23.250;2022-11-14T03:01:27;95673.94;;;2.81;100.00
15050;BME280;7622;42.724;23.250;2022-11-14T03:03:54;95700.34;;;2.83;100.00
15050;BME280;7622;42.724;23.250;2022-11-14T03:06:20;95705.38;;;2.84;100.00
15050;BME280;7622;42.724;23.250;2022-11-14T03:08:47;95704.13;;;2.93;100.00
15050;BME280;7622;42.724;23.250;2022-11-14T03:11:14;95701.09;;;2.85;100.00
15050;BME280;7622;42.724;23.250;2022-11-14T03:13:42;95698.22;;;2.91;100.00
15050;BME280;7622;42.724;23.250;2022-11-14T03:16:11;95697.19;;;2.95;100.00
15050;BME280;7622;42.724;23.250;2022-11-14T03:18:38;95696.53;;;2.72;100.00
15050;BME280;7622;42.724;23.250;2022-11-14T03:21:06;95690.19;;;2.62;100.00
15050;BME280;7622;42.724;23.250;2022-11-14T03:23:32;95696.72;;;2.87;100.00
15050;BME280;7622;42.724;23.250;2022-11-14T03:26:00;95686.94;;;2.95;100.00
15050;BME280;7622;42.724;23.250;2022-11-14T03:28:27;95697.50;;;2.89;100.00
15050;BME280;7622;42.724;23.250;2022-11-14T03:30:55;95690.34;;;2.95;100.00
15050;BME280;7622;42.724;23.250;2022-11-14T03:33:22;95698.22;;;2.91;100.00
15050;BME280;7622;42.724;23.250;2022-11-14T03:35:50;95682.63;;;2.95;100.00
15050;BME280;7622;42.724;23.250;2022-11-14T03:38:17;95695.34;;;3.15;100.00
15050;BME280;7622;42.724;23.250;2022-11-14T03:40:44;95692.72;;;3.17;100.00
15050;BME280;7622;42.724;23.250;2022-11-14T03:43:10;95695.06;;;3.22;100.00
15050;BME280;7622;42.724;23.250;2022-11-14T03:45:37;95696.03;;;3.19;100.00
15050;BME280;7622;42.724;23.250;2022-11-14T03:48:06;95692.41;;;3.23;100.00
15050;BME280;7622;42.724;23.250;2022-11-14T03:50:33;95691.69;;;3.38;100.00
15050;BME280;7622;42.724;23.250;2022-11-14T03:53:00;95685.91;;;3.16;100.00
15050;BME280;7622;42.724;23.250;2022-11-14T03:55:27;95673.16;;;3.14;100.00
15050;BME280;7622;42.724;23.250;2022-11-14T03:57:53;95688.41;;;3.17;100.00
15050;BME280;7622;42.724;23.250;2022-11-14T04:00:20;95684.38;;;3.12;100.00
15050;BME280;7622;42.724;23.250;2022-11-14T04:02:47;95679.88;;;3.17;100.00
15050;BME280;7622;42.724;23.250;2022-11-14T04:05:15;95688.94;;;3.24;100.00
15050;BME280;7622;42.724;23.250;2022-11-14T04:07:42;95684.91;;;3.18;100.00
15050;BME280;7622;42.724;23.250;2022-11-14T04:10:09;95685.22;;;3.12;100.00
15050;BME280;7622;42.724;23.250;2022-11-14T04:12:36;95684.91;;;3.18;100.00
15050;BME280;7622;42.724;23.250;2022-11-14T04:15:03;95685.38;;;3.27;100.00
15050;BME280;7622;42.724;23.250;2022-11-14T04:17:30;95684.38;;;3.12;100.00
15050;BME280;7622;42.724;23.250;2022-11-14T04:19:57;95682.28;;;3.20;100.00
15050;BME280;7622;42.724;23.250;2022-11-14T04:22:25;95685.63;;;3.22;100.00
15050;BME280;7622;42.724;23.250;2022-11-14T04:24:52;95687.72;;;3.14;100.00
15050;BME280;7622;42.724;23.250;2022-11-14T04:27:19;95683.28;;;3.17;100.00
15050;BME280;7622;42.724;23.250;2022-11-14T04:29:45;95681.47;;;3.20;100.00
15050;BME280;7622;42.724;23.250;2022-11-14T04:32:12;95679.88;;;3.34;100.00
15050;BME280;7622;42.724;23.250;2022-11-14T04:34:39;95674.75;;;3.34;100.00
15050;BME280;7622;42.724;23.250;2022-11-14T04:37:06;95662.38;;;3.42;100.00
15050;BME280;7622;42.724;23.250;2022-11-14T04:39:34;95676.53;;;3.67;100.00
15050;BME280;7622;42.724;23.250;2022-11-14T04:42:00;95676.53;;;3.84;100.00
15050;BME280;7622;42.724;23.250;2022-11-14T04:44:27;95676.47;;;3.85;100.00
15050;BME280;7622;42.724;23.250;2022-11-14T04:46:54;95680.31;;;3.94;100.00
15050;BME280;7622;42.724;23.250;2022-11-14T04:49:21;95674.94;;;3.81;100.00
15050;BME280;7622;42.724;23.250;2022-11-14T04:51:48;95671.66;;;3.95;100.00
15050;BME280;7622;42.724;23.250;2022-11-14T04:54:15;95679.78;;;3.87;100.00
15050;BME280;7622;42.724;23.250;2022-11-14T04:56:43;95674.91;;;3.66;100.00
15050;BME280;7622;42.724;23.250;2022-11-14T04:59:10;95661.91;;;3.69;100.00
15050;BME280;7622;42.724;23.250;2022-11-14T05:01:37;95671.28;;;3.70;100.00
15050;BME280;7622;42.724;23.250;2022-11-14T05:04:04;95672.84;;;3.55;100.00
15050;BME280;7622;42.724;23.250;2022-11-14T05:06:30;95672.19;;;3.51;100.00
15050;BME280;7622;42.724;23.250;2022-11-14T05:08:57;95672.94;;;3.36;100.00
15050;BME280;7622;42.724;23.250;2022-11-14T05:11:24;95679.66;;;3.22;100.00
15050;BME280;7622;42.724;23.250;2022-11-14T05:13:52;95679.25;;;3.12;100.00
15050;BME280;7622;42.724;23.250;2022-11-14T05:16:19;95687.88;;;3.11;100.00
15050;BME280;7622;42.724;23.250;2022-11-14T05:18:46;95683.41;;;3.14;100.00
15050;BME280;7622;42.724;23.250;2022-11-14T05:21:13;95688.44;;;2.99;100.00
15050;BME280;7622;42.724;23.250;2022-11-14T05:23:40;95685.53;;;3.06;100.00
15050;BME280;7622;42.724;23.250;2022-11-14T05:26:09;95695.66;;;2.91;100.00
15050;BME280;7622;42.724;23.250;2022-11-14T05:28:36;95694.50;;;2.79;100.00
15050;BME280;7622;42.724;23.250;2022-11-14T05:31:06;95691.81;;;2.82;100.00
15050;BME280;7622;42.724;23.250;2022-11-14T05:33:34;95674.16;;;2.76;100.00
15050;BME280;7622;42.724;23.250;2022-11-14T05:36:02;95652.75;;;2.58;100.00
15050;BME280;7622;42.724;23.250;2022-11-14T05:38:28;95690.22;;;2.80;100.00
15050;BME280;7622;42.724;23.250;2022-11-14T05:40:55;95690.63;;;2.70;100.00
15050;BME280;7622;42.724;23.250;2022-11-14T05:43:23;95678.94;;;2.65;100.00
15050;BME280;7622;42.724;23.250;2022-11-14T05:45:50;95667.28;;;2.58;100.00
15050;BME280;7622;42.724;23.250;2022-11-14T05:48:18;95697.03;;;3.16;100.00
15050;BME280;7622;42.724;23.250;2022-11-14T05:50:45;95691.97;;;3.32;100.00
15050;BME280;7622;42.724;23.250;2022-11-14T05:53:11;95695.09;;;3.39;100.00
15050;BME280;7622;42.724;23.250;2022-11-14T05:55:38;95696.81;;;3.55;100.00
15050;BME280;7622;42.724;23.250;2022-11-14T05:58:05;95693.56;;;3.52;100.00
15050;BME280;7622;42.724;23.250;2022-11-14T06:00:32;95697.19;;;3.48;100.00
15050;BME280;7622;42.724;23.250;2022-11-14T06:02:59;95702.09;;;3.35;100.00
15050;BME280;7622;42.724;23.250;2022-11-14T06:05:27;95700.97;;;3.41;100.00
15050;BME280;7622;42.724;23.250;2022-11-14T06:07:54;95674.16;;;3.64;100.00
15050;BME280;7622;42.724;23.250;2022-11-14T06:10:21;95710.25;;;3.61;100.00
15050;BME280;7622;42.724;23.250;2022-11-14T06:12:49;95712.69;;;3.64;100.00
15050;BME280;7622;42.724;23.250;2022-11-14T06:15:16;95720.97;;;3.69;100.00
15050;BME280;7622;42.724;23.250;2022-11-14T06:17:43;95706.78;;;3.62;100.00
15050;BME280;7622;42.724;23.250;2022-11-14T06:20:10;95715.91;;;3.84;100.00
15050;BME280;7622;42.724;23.250;2022-11-14T06:22:39;95721.19;;;3.81;100.00
15050;BME280;7622;42.724;23.250;2022-11-14T06:25:06;95711.75;;;3.82;100.00
15050;BME280;7622;42.724;23.250;2022-11-14T06:27:33;95706.94;;;3.76;100.00
15050;BME280;7622;42.724;23.250;2022-11-14T06:30:00;95712.19;;;3.90;100.00
15050;BME280;7622;42.724;23.250;2022-11-14T06:32:27;95710.09;;;3.64;100.00
15050;BME280;7622;42.724;23.250;2022-11-14T06:34:54;95706.78;;;3.79;100.00
15050;BME280;7622;42.724;23.250;2022-11-14T06:37:21;95707.94;;;3.73;100.00
15050;BME280;7622;42.724;23.250;2022-11-14T06:39:49;95717.91;;;3.79;100.00
15050;BME280;7622;42.724;23.250;2022-11-14T06:42:15;95708.91;;;3.71;100.00
15050;BME280;7622;42.724;23.250;2022-11-14T06:44:42;95707.69;;;3.78;100.00
15050;BME280;7622;42.724;23.250;2022-11-14T06:47:09;95706.16;;;3.74;100.00
15050;BME280;7622;42.724;23.250;2022-11-14T06:49:36;95707.44;;;3.82;100.00
15050;BME280;7622;42.724;23.250;2022-11-14T06:52:03;95705.63;;;3.84;100.00
15050;BME280;7622;42.724;23.250;2022-11-14T06:54:30;95705.25;;;3.75;100.00
15050;BME280;7622;42.724;23.250;2022-11-14T06:56:58;95703.53;;;3.75;100.00
15050;BME280;7622;42.724;23.250;2022-11-14T06:59:24;95707.81;;;3.75;100.00
15050;BME280;7622;42.724;23.250;2022-11-14T07:01:51;95695.28;;;3.69;100.00
15050;BME280;7622;42.724;23.250;2022-11-14T07:04:18;95700.50;;;3.84;100.00
15050;BME280;7622;42.724;23.250;2022-11-14T07:06:45;95696.50;;;3.79;100.00
15050;BME280;7622;42.724;23.250;2022-11-14T07:09:11;95697.69;;;3.89;100.00
15050;BME280;7622;42.724;23.250;2022-11-14T07:11:38;95705.00;;;3.96;100.00
15050;BME280;7622;42.724;23.250;2022-11-14T07:14:08;95699.56;;;4.03;100.00
15050;BME280;7622;42.724;23.250;2022-11-14T07:16:35;95700.78;;;3.95;100.00
15050;BME280;7622;42.724;23.250;2022-11-14T07:19:03;95701.22;;;4.04;100.00
15050;BME280;7622;42.724;23.250;2022-11-14T07:21:30;95643.41;;;3.62;100.00
15050;BME280;7622;42.724;23.250;2022-11-14T07:23:58;95706.00;;;3.94;100.00
15050;BME280;7622;42.724;23.250;2022-11-14T07:26:25;95706.09;;;3.92;100.00
15050;BME280;7622;42.724;23.250;2022-11-14T07:28:52;95706.81;;;3.94;100.00
15050;BME280;7622;42.724;23.250;2022-11-14T07:31:20;95702.19;;;4.01;100.00
15050;BME280;7622;42.724;23.250;2022-11-14T07:33:47;95697.38;;;3.95;100.00
15050;BME280;7622;42.724;23.250;2022-11-14T07:36:15;95696.25;;;4.01;100.00
15050;BME280;7622;42.724;23.250;2022-11-14T07:38:42;95700.69;;;3.97;100.00
15050;BME280;7622;42.724;23.250;2022-11-14T07:41:10;95688.63;;;3.99;100.00
15050;BME280;7622;42.724;23.250;2022-11-14T07:43:38;95691.25;;;3.97;100.00
15050;BME280;7622;42.724;23.250;2022-11-14T07:46:06;95681.34;;;4.07;100.00
15050;BME280;7622;42.724;23.250;2022-11-14T07:48:35;95687.44;;;4.38;100.00
15050;BME280;7622;42.724;23.250;2022-11-14T07:51:03;95691.19;;;4.79;100.00
15050;BME280;7622;42.724;23.250;2022-11-14T07:53:31;95694.69;;;4.47;100.00
15050;BME280;7622;42.724;23.250;2022-11-14T07:56:01;95685.81;;;4.52;100.00
15050;BME280;7622;42.724;23.250;2022-11-14T07:58:29;95687.22;;;4.58;100.00
15050;BME280;7622;42.724;23.250;2022-11-14T08:00:59;95693.34;;;4.71;100.00
15050;BME280;7622;42.724;23.250;2022-11-14T08:03:26;95684.50;;;4.61;100.00
15050;BME280;7622;42.724;23.250;2022-11-14T08:06:00;95681.72;;;4.32;100.00
15050;BME280;7622;42.724;23.250;2022-11-14T08:08:27;95680.81;;;4.65;100.00
15050;BME280;7622;42.724;23.250;2022-11-14T08:10:55;95681.16;;;4.59;100.00
15050;BME280;7622;42.724;23.250;2022-11-14T08:13:22;95682.22;;;4.70;100.00
15050;BME280;7622;42.724;23.250;2022-11-14T08:15:49;95653.44;;;4.64;100.00
15050;BME280;7622;42.724;23.250;2022-11-14T08:18:17;95679.25;;;4.78;100.00
15050;BME280;7622;42.724;23.250;2022-11-14T08:20:43;95678.44;;;4.62;100.00
15050;BME280;7622;42.724;23.250;2022-11-14T08:23:12;95683.06;;;4.71;100.00
15050;BME280;7622;42.724;23.250;2022-11-14T08:25:40;95680.91;;;5.10;100.00
15050;BME280;7622;42.724;23.250;2022-11-14T08:28:07;95677.91;;;5.02;100.00
15050;BME280;7622;42.724;23.250;2022-11-14T08:30:34;95666.31;;;4.80;100.00
15050;BME280;7622;42.724;23.250;2022-11-14T08:33:00;95678.06;;;4.99;100.00
15050;BME280;7622;42.724;23.250;2022-11-14T08:35:29;95673.91;;;5.12;100.00
15050;BME280;7622;42.724;23.250;2022-11-14T08:37:55;95663.38;;;5.01;100.00
15050;BME280;7622;42.724;23.250;2022-11-14T08:40:24;95670.91;;;5.20;100.00
15050;BME280;7622;42.724;23.250;2022-11-14T08:42:50;95674.50;;;5.18;100.00
15050;BME280;7622;42.724;23.250;2022-11-14T08:45:17;95671.38;;;5.27;100.00
15050;BME280;7622;42.724;23.250;2022-11-14T08:47:49;95673.53;;;5.34;100.00
15050;BME280;7622;42.724;23.250;2022-11-14T08:50:17;95665.56;;;5.39;100.00
15050;BME280;7622;42.724;23.250;2022-11-14T08:52:48;95657.72;;;5.40;100.00
15050;BME280;7622;42.724;23.250;2022-11-14T08:55:15;95657.50;;;5.59;100.00
15050;BME280;7622;42.724;23.250;2022-11-14T08:57:43;95651.88;;;5.52;100.00
15050;BME280;7622;42.724;23.250;2022-11-14T09:00:11;95650.69;;;5.58;100.00
15050;BME280;7622;42.724;23.250;2022-11-14T09:02:37;95650.81;;;5.71;100.00
15050;BME280;7622;42.724;23.250;2022-11-14T09:05:06;95656.78;;;5.71;100.00
15050;BME280;7622;42.724;23.250;2022-11-14T09:07:32;95647.78;;;5.78;100.00
15050;BME280;7622;42.724;23.250;2022-11-14T09:09:59;95646.09;;;5.63;100.00
15050;BME280;7622;42.724;23.250;2022-11-14T09:12:26;95644.25;;;5.65;100.00
15050;BME280;7622;42.724;23.250;2022-11-14T09:14:54;95645.91;;;5.52;100.00
15050;BME280;7622;42.724;23.250;2022-11-14T09:17:21;95636.69;;;5.62;100.00
15050;BME280;7622;42.724;23.250;2022-11-14T09:19:48;95644.06;;;5.68;100.00
15050;BME280;7622;42.724;23.250;2022-11-14T09:22:14;95640.03;;;5.64;100.00
15050;BME280;7622;42.724;23.250;2022-11-14T09:24:41;95628.22;;;5.60;100.00
15050;BME280;7622;42.724;23.250;2022-11-14T09:27:11;95636.81;;;5.75;100.00
15050;BME280;7622;42.724;23.250;2022-11-14T09:29:38;95630.78;;;5.46;100.00
15050;BME280;7622;42.724;23.250;2022-11-14T09:32:06;95636.22;;;5.55;100.00
15050;BME280;7622;42.724;23.250;2022-11-14T09:34:33;95615.72;;;5.68;100.00
15050;BME280;7622;42.724;23.250;2022-11-14T09:37:01;95619.97;;;5.83;100.00
15050;BME280;7622;42.724;23.250;2022-11-14T09:39:28;95613.16;;;5.82;100.00
15050;BME280;7622;42.724;23.250;2022-11-14T09:42:07;95614.47;;;5.89;100.00
15050;BME280;7622;42.724;23.250;2022-11-14T09:44:48;95613.38;;;6.08;100.00
15050;BME280;7622;42.724;23.250;2022-11-14T09:47:22;95613.56;;;6.05;100.00
15050;BME280;7622;42.724;23.250;2022-11-14T09:49:53;95614.28;;;6.35;100.00
15050;BME280;7622;42.724;23.250;2022-11-14T09:52:27;95614.28;;;6.35;100.00
15050;BME280;7622;42.724;23.250;2022-11-14T09:54:58;95605.81;;;6.33;100.00
15050;BME280;7622;42.724;23.250;2022-11-14T09:57:28;95600.47;;;6.36;100.00
15050;BME280;7622;42.724;23.250;2022-11-14T09:59:55;95595.41;;;6.35;100.00
15050;BME280;7622;42.724;23.250;2022-11-14T10:02:38;95589.06;;;6.53;100.00
15050;BME280;7622;42.724;23.250;2022-11-14T10:05:21;95588.91;;;6.56;100.00
15050;BME280;7622;42.724;23.250;2022-11-14T10:07:59;95588.34;;;6.51;100.00
15050;BME280;7622;42.724;23.250;2022-11-14T10:10:41;95583.00;;;6.54;100.00
15050;BME280;7622;42.724;23.250;2022-11-14T10:13:16;95579.09;;;6.88;100.00
15050;BME280;7622;42.724;23.250;2022-11-14T10:15:53;95572.19;;;6.88;100.00
15050;BME280;7622;42.724;23.250;2022-11-14T10:18:37;95574.84;;;6.87;100.00
15050;BME280;7622;42.724;23.250;2022-11-14T10:21:20;95572.81;;;7.31;100.00
15050;BME280;7622;42.724;23.250;2022-11-14T10:23:55;95571.38;;;7.65;100.00
15050;BME280;7622;42.724;23.250;2022-11-14T10:26:27;95569.28;;;8.08;100.00
15050;BME280;7622;42.724;23.250;2022-11-14T10:29:29;95560.53;;;8.71;100.00
15050;BME280;7622;42.724;23.250;2022-11-14T10:32:10;95557.72;;;9.33;100.00
15050;BME280;7622;42.724;23.250;2022-11-14T10:34:47;95544.94;;;9.65;100.00
15050;BME280;7622;42.724;23.250;2022-11-14T10:37:19;95547.06;;;9.82;100.00
15050;BME280;7622;42.724;23.250;2022-11-14T10:39:50;95536.09;;;10.12;100.00
15050;BME280;7622;42.724;23.250;2022-11-14T10:42:24;95533.81;;;10.63;100.00
15050;BME280;7622;42.724;23.250;2022-11-14T10:44:57;95543.22;;;11.07;100.00
15050;BME280;7622;42.724;23.250;2022-11-14T10:47:31;95530.69;;;10.80;100.00
15050;BME280;7622;42.724;23.250;2022-11-14T10:50:14;95535.25;;;10.99;100.00
15050;BME280;7622;42.724;23.250;2022-11-14T10:52:44;95527.00;;;11.35;100.00
15050;BME280;7622;42.724;23.250;2022-11-14T10:55:13;95529.47;;;11.16;100.00
15050;BME280;7622;42.724;23.250;2022-11-14T10:57:41;95525.13;;;11.79;100.00
15050;BME280;7622;42.724;23.250;2022-11-14T11:00:19;95520.00;;;11.98;100.00
15050;BME280;7622;42.724;23.250;2022-11-14T11:02:50;95517.44;;;12.17;100.00
15050;BME280;7622;42.724;23.250;2022-11-14T11:05:21;95502.19;;;12.43;100.00
15050;BME280;7622;42.724;23.250;2022-11-14T11:07:48;95510.56;;;12.47;100.00
15050;BME280;7622;42.724;23.250;2022-11-14T11:10:34;95493.03;;;12.68;100.00
15050;BME280;7622;42.724;23.250;2022-11-14T11:13:30;95493.00;;;12.49;100.00
15050;BME280;7622;42.724;23.250;2022-11-14T11:15:59;95478.22;;;12.97;100.00
15050;BME280;7622;42.724;23.250;2022-11-14T11:18:28;95502.94;;;12.84;100.00
15050;BME280;7622;42.724;23.250;2022-11-14T11:21:08;95500.19;;;13.05;100.00
15050;BME280;7622;42.724;23.250;2022-11-14T11:23:46;95484.00;;;12.82;100.00
15050;BME280;7622;42.724;23.250;2022-11-14T11:26:21;95501.13;;;12.65;100.00
15050;BME280;7622;42.724;23.250;2022-11-14T11:29:04;95485.22;;;12.68;100.00
15050;BME280;7622;42.724;23.250;2022-11-14T11:31:51;95486.91;;;12.19;100.00
15050;BME280;7622;42.724;23.250;2022-11-14T11:34:23;95480.91;;;12.29;100.00
15050;BME280;7622;42.724;23.250;2022-11-14T11:36:56;95487.66;;;12.50;100.00
15050;BME280;7622;42.724;23.250;2022-11-14T11:39:27;95480.41;;;12.73;100.00
15050;BME280;7622;42.724;23.250;2022-11-14T11:41:57;95479.34;;;12.85;100.00
15050;BME280;7622;42.724;23.250;2022-11-14T11:44:33;95479.03;;;13.08;100.00
15050;BME280;7622;42.724;23.250;2022-11-14T11:47:03;95471.38;;;12.96;100.00
15050;BME280;7622;42.724;23.250;2022-11-14T11:49:39;95465.19;;;13.17;100.00
15050;BME280;7622;42.724;23.250;2022-11-14T11:52:12;95462.09;;;13.50;100.00
15050;BME280;7622;42.724;23.250;2022-11-14T11:54:50;95462.09;;;13.60;100.00
15050;BME280;7622;42.724;23.250;2022-11-14T11:57:24;95458.19;;;13.27;100.00
15050;BME280;7622;42.724;23.250;2022-11-14T12:00:00;95461.19;;;13.32;100.00
15050;BME280;7622;42.724;23.250;2022-11-14T12:02:29;95460.66;;;12.80;100.00
15050;BME280;7622;42.724;23.250;2022-11-14T12:04:56;95461.19;;;12.74;100.00
15050;BME280;7622;42.724;23.250;2022-11-14T12:07:34;95459.16;;;12.68;100.00
15050;BME280;7622;42.724;23.250;2022-11-14T12:10:09;95427.84;;;12.30;100.00
15050;BME280;7622;42.724;23.250;2022-11-14T12:12:50;95445.13;;;12.31;100.00
15050;BME280;7622;42.724;23.250;2022-11-14T12:15:23;95438.06;;;12.12;100.00
15050;BME280;7622;42.724;23.250;2022-11-14T12:21:10;95445.47;;;12.07;100.00
15050;BME280;7622;42.724;23.250;2022-11-14T12:24:06;95436.53;;;12.00;100.00
15050;BME280;7622;42.724;23.250;2022-11-14T12:27:04;95434.53;;;12.13;100.00
15050;BME280;7622;42.724;23.250;2022-11-14T12:29:48;95412.69;;;11.95;100.00
15050;BME280;7622;42.724;23.250;2022-11-14T12:32:22;95427.50;;;11.94;100.00
15050;BME280;7622;42.724;23.250;2022-11-14T12:34:53;95425.88;;;11.72;100.00
15050;BME280;7622;42.724;23.250;2022-11-14T12:37:23;95420.09;;;11.69;100.00
15050;BME280;7622;42.724;23.250;2022-11-14T12:39:57;95425.31;;;11.69;100.00
15050;BME280;7622;42.724;23.250;2022-11-14T12:42:25;95426.28;;;11.68;100.00
15050;BME280;7622;42.724;23.250;2022-11-14T12:44:52;95420.91;;;11.60;100.00
15050;BME280;7622;42.724;23.250;2022-11-14T12:47:20;95424.97;;;11.53;100.00
15050;BME280;7622;42.724;23.250;2022-11-14T12:49:59;95422.97;;;11.35;100.00
15050;BME280;7622;42.724;23.250;2022-11-14T12:52:47;95416.66;;;11.59;100.00
15050;BME280;7622;42.724;23.250;2022-11-14T12:55:53;95418.41;;;11.79;100.00
15050;BME280;7622;42.724;23.250;2022-11-14T12:58:47;95401.53;;;11.83;100.00
15050;BME280;7622;42.724;23.250;2022-11-14T13:01:26;95400.75;;;11.92;100.00
15050;BME280;7622;42.724;23.250;2022-11-14T13:04:06;95400.50;;;11.95;100.00
15050;BME280;7622;42.724;23.250;2022-11-14T13:06:43;95403.78;;;11.97;100.00
15050;BME280;7622;42.724;23.250;2022-11-14T13:09:32;95393.09;;;12.00;100.00
15050;BME280;7622;42.724;23.250;2022-11-14T13:12:22;95394.06;;;11.99;100.00
15050;BME280;7622;42.724;23.250;2022-11-14T13:15:24;95392.81;;;12.03;100.00